Crawfordsville, Oregon
Current Conditions -  °F | °C
As of 10:15 PM on Friday 28 Nov 2014 (Local Time) from KCVO Reporting Station
Overcast Overcast  
Wind Chill:   Ceiling: 3900
Heat Index:   Visibility: 10mi
Dew Point:   Wind: 10mph
Humidity: 81%   Direction: 300°WNW
Pressure: 29.65"   Gusts: 17mph
Location:  44.36°N, 122.86°W
Report Text: KCVO 290615Z AUTO 30009G15KT 10SM FEW031 BKN039 OVC050 08/05 A2965 RMK AO1
Loading
Personal Weather Stations






























Interactive Weather Map New forecast layout! Learn more

10-Day Weather Forecast

Advertisements
Track Severe Weather on mobile